Observation data for Plains on 03/24/2019      Previous  Date  Next       Current Mesonet Observations  Soil Data  Daily Summary Page  Observations in Plain Language
KPPS 240505Z 19006KT 11/M06 A3003 RMK A01 T01131059  RH  029%=      5-min Rain = 0
KPPS 240510Z 19006KT 11/M06 A3003 RMK A01 T01091059  RH  030%=      5-min Rain = 0
KPPS 240515Z 19007KT 11/M06 A3003 RMK A01 T01071057  RH  031%=      5-min Rain = 0
KPPS 240520Z 19007KT 10/M05 A3002 RMK A01 T01011050  RH  034%=      5-min Rain = 0
KPPS 240525Z 19008KT 09/M05 A3002 RMK A01 T00931045  RH  038%=      5-min Rain = 0
KPPS 240530Z 20008KT 10/M05 A3002 RMK A01 T00951049  RH  036%=      5-min Rain = 0
KPPS 240535Z 20007KT 10/M05 A3002 RMK A01 T00981052  RH  034%=      5-min Rain = 0
KPPS 240540Z 20006KT 10/M05 A3002 RMK A01 T00981054  RH  034%=      5-min Rain = 0
KPPS 240545Z 21006KT 10/M05 A3002 RMK A01 T00961054  RH  034%=      5-min Rain = 0
KPPS 240550Z 22005KT 09/M05 A3002 RMK A01 T00891047  RH  038%=      5-min Rain = 0
KPPS 240555Z 23006KT 09/M05 A3002 RMK A01 T00851048  RH  039%=      5-min Rain = 0
KPPS 240600Z 23008KT 09/M05 A3002 RMK A01 T00911050  RH  037%=      5-min Rain = 0
KPPS 240605Z 23007KT 10/M05 A3002 RMK A01 T00961049  RH  036%=      5-min Rain = 0
KPPS 240610Z 23007KT 08/M04 A3002 RMK A01 T00841040  RH  042%=      5-min Rain = 0
KPPS 240615Z 24007KT 08/M04 A3001 RMK A01 T00771037  RH  045%=      5-min Rain = 0
KPPS 240620Z 23007KT 07/M04 A3001 RMK A01 T00711035  RH  047%=      5-min Rain = 0
KPPS 240625Z 24008KT 06/M03 A3001 RMK A01 T00641033  RH  050%=      5-min Rain = 0
KPPS 240630Z 25009KT 06/M03 A3001 RMK A01 T00571029  RH  054%=      5-min Rain = 0
KPPS 240635Z 25008KT 05/M03 A3001 RMK A01 T00541027  RH  056%=      5-min Rain = 0
KPPS 240640Z 23007KT 06/M03 A3001 RMK A01 T00571028  RH  055%=      5-min Rain = 0
KPPS 240645Z 22007KT 06/M03 A3001 RMK A01 T00611028  RH  053%=      5-min Rain = 0
KPPS 240650Z 24008KT 06/M03 A3001 RMK A01 T00591025  RH  055%=      5-min Rain = 0
KPPS 240655Z 24008KT 06/M03 A3001 RMK A01 T00601025  RH  055%=      5-min Rain = 0
KPPS 240700Z 23007KT 06/M03 A3001 RMK A01 T00591025  RH  055%=      5-min Rain = 0
KPPS 240705Z 23006KT 06/M03 A3001 RMK A01 T00631025  RH  054%=      5-min Rain = 0
KPPS 240710Z 26006KT 06/M02 A3001 RMK A01 T00591023  RH  056%=      5-min Rain = 0
KPPS 240715Z 28005KT 06/M02 A3002 RMK A01 T00581021  RH  058%=      5-min Rain = 0
KPPS 240720Z 30006KT 05/M02 A3002 RMK A01 T00521019  RH  061%=      5-min Rain = 0
KPPS 240725Z 30006KT 05/M02 A3002 RMK A01 T00491021  RH  061%=      5-min Rain = 0
KPPS 240730Z 29007KT 05/M02 A3002 RMK A01 T00451021  RH  063%=      5-min Rain = 0
KPPS 240735Z 28006KT 05/M02 A3002 RMK A01 T00481022  RH  061%=      5-min Rain = 0
KPPS 240740Z 27004KT 05/M02 A3003 RMK A01 T00471021  RH  062%=      5-min Rain = 0
KPPS 240745Z 22004KT 04/M02 A3003 RMK A01 T00441019  RH  064%=      5-min Rain = 0
KPPS 240750Z 26005KT 04/M02 A3003 RMK A01 T00431020  RH  064%=      5-min Rain = 0
KPPS 240755Z 29006KT 04/M02 A3003 RMK A01 T00391018  RH  067%=      5-min Rain = 0
KPPS 240800Z 29005KT 04/M02 A3003 RMK A01 T00391018  RH  067%=      5-min Rain = 0
KPPS 240805Z 29005KT 04/M02 A3002 RMK A01 T00391017  RH  067%=      5-min Rain = 0
KPPS 240810Z 28005KT 04/M02 A3002 RMK A01 T00381018  RH  067%=      5-min Rain = 0
KPPS 240815Z 27004KT 04/M02 A3002 RMK A01 T00391018  RH  067%=      5-min Rain = 0
KPPS 240820Z 26005KT 04/M02 A3002 RMK A01 T00381017  RH  068%=      5-min Rain = 0
KPPS 240825Z 26005KT 04/M02 A3002 RMK A01 T00371017  RH  068%=      5-min Rain = 0
KPPS 240830Z 27005KT 04/M02 A3002 RMK A01 T00371018  RH  068%=      5-min Rain = 0
KPPS 240835Z 27005KT 04/M02 A3002 RMK A01 T00361017  RH  069%=      5-min Rain = 0
KPPS 240840Z 27006KT 03/M02 A3002 RMK A01 T00341017  RH  070%=      5-min Rain = 0
KPPS 240845Z 26005KT 03/M02 A3002 RMK A01 T00331016  RH  071%=      5-min Rain = 0
KPPS 240850Z 26006KT 03/M02 A3002 RMK A01 T00341016  RH  071%=      5-min Rain = 0
KPPS 240855Z 26007KT 03/M02 A3002 RMK A01 T00331016  RH  071%=      5-min Rain = 0
KPPS 240900Z 27006KT 03/M02 A3002 RMK A01 T00331016  RH  071%=      5-min Rain = 0
KPPS 240905Z 28006KT 04/M02 A3002 RMK A01 T00391017  RH  067%=      5-min Rain = 0
KPPS 240910Z 28006KT 04/M02 A3002 RMK A01 T00421017  RH  066%=      5-min Rain = 0
KPPS 240915Z 28005KT 04/M02 A3002 RMK A01 T00441018  RH  064%=      5-min Rain = 0
KPPS 240920Z 27005KT 05/M02 A3002 RMK A01 T00461018  RH  064%=      5-min Rain = 0
KPPS 240925Z 27006KT 05/M02 A3002 RMK A01 T00451017  RH  065%=      5-min Rain = 0
KPPS 240930Z 27006KT 04/M02 A3002 RMK A01 T00431017  RH  065%=      5-min Rain = 0
KPPS 240935Z 27006KT 05/M02 A3002 RMK A01 T00451017  RH  065%=      5-min Rain = 0
KPPS 240940Z 25007KT 04/M02 A3002 RMK A01 T00441016  RH  065%=      5-min Rain = 0
KPPS 240945Z 23007KT 04/M02 A3002 RMK A01 T00411015  RH  067%=      5-min Rain = 0
KPPS 240950Z 25008KT 05/M02 A3002 RMK A01 T00461016  RH  065%=      5-min Rain = 0
KPPS 240955Z 24008KT 05/M02 A3002 RMK A01 T00481017  RH  063%=      5-min Rain = 0
KPPS 241000Z 25009KT 05/M02 A3002 RMK A01 T00491018  RH  063%=      5-min Rain = 0
KPPS 241005Z 24006KT 05/M02 A3002 RMK A01 T00451016  RH  065%=      5-min Rain = 0
KPPS 241010Z 24005KT 04/M02 A3001 RMK A01 T00441016  RH  066%=      5-min Rain = 0
KPPS 241015Z 24005KT 04/M02 A3002 RMK A01 T00401015  RH  068%=      5-min Rain = 0
KPPS 241020Z 23005KT 04/M01 A3002 RMK A01 T00391014  RH  069%=      5-min Rain = 0
KPPS 241025Z 23006KT 04/M01 A3002 RMK A01 T00371014  RH  070%=      5-min Rain = 0
KPPS 241030Z 24006KT 04/M02 A3002 RMK A01 T00381016  RH  069%=      5-min Rain = 0
KPPS 241035Z 25006KT 04/M02 A3002 RMK A01 T00361015  RH  070%=      5-min Rain = 0
KPPS 241040Z 24006KT 03/M02 A3002 RMK A01 T00341015  RH  071%=      5-min Rain = 0
KPPS 241045Z 24005KT 04/M02 A3002 RMK A01 T00371016  RH  069%=      5-min Rain = 0
KPPS 241050Z 25006KT 04/M02 A3002 RMK A01 T00351016  RH  070%=      5-min Rain = 0
KPPS 241055Z 26006KT 03/M02 A3002 RMK A01 T00331016  RH  071%=      5-min Rain = 0
KPPS 241100Z 26006KT 03/M02 A3002 RMK A01 T00331016  RH  071%=      5-min Rain = 0
KPPS 241105Z 26006KT 03/M01 A3003 RMK A01 T00301014  RH  073%=      5-min Rain = 0
KPPS 241110Z 26006KT 03/M02 A3003 RMK A01 T00291015  RH  074%=      5-min Rain = 0
KPPS 241115Z 27007KT 03/M02 A3003 RMK A01 T00301016  RH  073%=      5-min Rain = 0
KPPS 241120Z 28008KT 03/M02 A3003 RMK A01 T00341017  RH  070%=      5-min Rain = 0
KPPS 241125Z 27007KT 04/M02 A3003 RMK A01 T00391018  RH  067%=      5-min Rain = 0
KPPS 241130Z 27008KT 04/M02 A3003 RMK A01 T00441017  RH  065%=      5-min Rain = 0
KPPS 241135Z 27007KT 05/M02 A3003 RMK A01 T00451017  RH  064%=      5-min Rain = 0
KPPS 241140Z 28008KT 04/M02 A3003 RMK A01 T00441017  RH  065%=      5-min Rain = 0
KPPS 241145Z 29009KT 05/M02 A3003 RMK A01 T00491019  RH  062%=      5-min Rain = 0
KPPS 241150Z 33008KT 05/M02 A3003 RMK A01 T00481019  RH  062%=      5-min Rain = 0
KPPS 241155Z 32007KT 04/M02 A3003 RMK A01 T00421018  RH  065%=      5-min Rain = 0
KPPS 241200Z 34007KT 04/M02 A3004 RMK A01 T00441018  RH  064%=      5-min Rain = 0
KPPS 241205Z 34008KT 05/M02 A3004 RMK A01 T00461018  RH  064%=      5-min Rain = 0
KPPS 241210Z 34009KT 05/M02 A3004 RMK A01 T00451018  RH  064%=      5-min Rain = 0
KPPS 241215Z 34007G13KT 05/M02 A3005 RMK A01 T00451020  RH  063%=      5-min Rain = 0
KPPS 241220Z 35008KT 05/M02 A3005 RMK A01 T00471022  RH  062%=      5-min Rain = 0
KPPS 241225Z 34006KT 05/M02 A3005 RMK A01 T00471024  RH  060%=      5-min Rain = 0
KPPS 241230Z 34006KT 05/M02 A3005 RMK A01 T00451024  RH  062%=      5-min Rain = 0
KPPS 241235Z 35008KT 04/M02 A3006 RMK A01 T00421024  RH  063%=      5-min Rain = 0
KPPS 241240Z 34007KT 04/M03 A3006 RMK A01 T00401025  RH  063%=      5-min Rain = 0
KPPS 241245Z 35007KT 04/M03 A3006 RMK A01 T00391025  RH  063%=      5-min Rain = 0
KPPS 241250Z 35007KT 04/M03 A3006 RMK A01 T00391025  RH  063%=      5-min Rain = 0
KPPS 241255Z 35007KT 04/M03 A3006 RMK A01 T00391025  RH  063%=      5-min Rain = 0
KPPS 241300Z 00007KT 04/M03 A3007 RMK A01 T00411026  RH  062%=      5-min Rain = 0
KPPS 241305Z 00008KT 05/M03 A3007 RMK A01 T00471029  RH  058%=      5-min Rain = 0
KPPS 241310Z 36007KT 05/M03 A3007 RMK A01 T00501028  RH  057%=      5-min Rain = 0
KPPS 241315Z 36007KT 05/M03 A3007 RMK A01 T00481027  RH  059%=      5-min Rain = 0
KPPS 241320Z 36007KT 05/M03 A3007 RMK A01 T00501026  RH  059%=      5-min Rain = 0
KPPS 241325Z 35007KT 05/M02 A3007 RMK A01 T00521021  RH  060%=      5-min Rain = 0
KPPS 241330Z 35007KT 06/M02 A3007 RMK A01 T00551019  RH  059%=      5-min Rain = 0
KPPS 241335Z 36007KT 06/M02 A3007 RMK A01 T00611017  RH  057%=      5-min Rain = 0
KPPS 241340Z 36006KT 07/M02 A3007 RMK A01 T00671015  RH  056%=      5-min Rain = 0
KPPS 241345Z 36007KT 07/M01 A3008 RMK A01 T00701011  RH  057%=      5-min Rain = 0
KPPS 241350Z 35008KT 07/M01 A3008 RMK A01 T00711011  RH  056%=      5-min Rain = 0
KPPS 241355Z 35007KT 07/M01 A3008 RMK A01 T00691011  RH  057%=      5-min Rain = 0
KPPS 241400Z 35007KT 07/M01 A3008 RMK A01 T00661013  RH  058%=      5-min Rain = 0
KPPS 241405Z 36007KT 07/M01 A3008 RMK A01 T00651011  RH  059%=      5-min Rain = 0
KPPS 241410Z 36007KT 07/M01 A3008 RMK A01 T00681005  RH  060%=      5-min Rain = 0
KPPS 241415Z 35007KT 07/M00 A3008 RMK A01 T00711004  RH  060%=      5-min Rain = 0
KPPS 241420Z 35008KT 07/M00 A3009 RMK A01 T00721004  RH  059%=      5-min Rain = 0
KPPS 241425Z 36009KT 07/M00 A3009 RMK A01 T00731002  RH  059%=      5-min Rain = 0
KPPS 241430Z 36008KT 07/00 A3009 RMK A01 T00740000  RH  060%=      5-min Rain = 0
KPPS 241435Z 36009KT 08/00 A3009 RMK A01 T00760002  RH  060%=      5-min Rain = 0
KPPS 241440Z 00009KT 08/01 A3009 RMK A01 T00780005  RH  061%=      5-min Rain = 0
KPPS 241445Z 00008KT 08/01 A3009 RMK A01 T00800008  RH  061%=      5-min Rain = 0
KPPS 241450Z 00009KT 08/01 A301 RMK A01 T00800008  RH  061%=      5-min Rain = 0
KPPS 241455Z 00008KT 08/01 A301 RMK A01 T00810010  RH  062%=      5-min Rain = 0
KPPS 241500Z 01008KT 08/01 A301 RMK A01 T00820012  RH  062%=      5-min Rain = 0
KPPS 241505Z 01006KT 09/02 A301 RMK A01 T00860015  RH  062%=      5-min Rain = 0
KPPS 241510Z 01007KT 09/02 A301 RMK A01 T00880016  RH  061%=      5-min Rain = 0
KPPS 241515Z 02005KT 09/02 A3011 RMK A01 T00920018  RH  061%=      5-min Rain = 0
KPPS 241520Z 01006KT 09/02 A301 RMK A01 T00940019  RH  060%=      5-min Rain = 0
KPPS 241525Z 02006KT 09/02 A3011 RMK A01 T00940018  RH  060%=      5-min Rain = 0
KPPS 241530Z 02006KT 09/02 A3011 RMK A01 T00940018  RH  060%=      5-min Rain = 0
KPPS 241535Z 01007KT 10/02 A3011 RMK A01 T00950018  RH  060%=      5-min Rain = 0
KPPS 241540Z 02005KT 10/02 A3011 RMK A01 T01020021  RH  058%=      5-min Rain = 0
KPPS 241545Z 02006KT 11/02 A3011 RMK A01 T01060021  RH  056%=      5-min Rain = 0
KPPS 241550Z 01006KT 11/02 A3011 RMK A01 T01090022  RH  056%=      5-min Rain = 0
KPPS 241555Z 03006KT 11/02 A3011 RMK A01 T01110021  RH  055%=      5-min Rain = 0
KPPS 241600Z 02006KT 12/03 A3011 RMK A01 T01170025  RH  054%=      5-min Rain = 0
KPPS 241605Z 02005KT 12/02 A3011 RMK A01 T01160021  RH  053%=      5-min Rain = 0
KPPS 241610Z 03004KT 12/02 A3011 RMK A01 T01190024  RH  053%=      5-min Rain = 0
KPPS 241615Z 02004KT 12/02 A3011 RMK A01 T01240024  RH  051%=      5-min Rain = 0
KPPS 241620Z 02005KT 12/02 A3011 RMK A01 T01230019  RH  050%=      5-min Rain = 0
KPPS 241625Z 01005KT 13/02 A3011 RMK A01 T01260017  RH  048%=      5-min Rain = 0
KPPS 241630Z 36004KT 13/02 A3011 RMK A01 T01280015  RH  047%=      5-min Rain = 0
KPPS 241635Z 00003KT 13/02 A3012 RMK A01 T01320019  RH  047%=      5-min Rain = 0
KPPS 241640Z 05003KT 13/02 A3012 RMK A01 T01340018  RH  046%=      5-min Rain = 0
KPPS 241645Z 35003KT 14/02 A3012 RMK A01 T01360021  RH  047%=      5-min Rain = 0
KPPS 241650Z 01002KT 14/02 A3012 RMK A01 T01350018  RH  046%=      5-min Rain = 0
KPPS 241655Z 02003KT 14/02 A3012 RMK A01 T01350018  RH  046%=      5-min Rain = 0
KPPS 241700Z 04001KT 14/02 A3012 RMK A01 T01400020  RH  045%=      5-min Rain = 0
KPPS 241705Z 04003KT 14/02 A3012 RMK A01 T01400022  RH  046%=      5-min Rain = 0
KPPS 241710Z 04001KT 14/02 A3012 RMK A01 T01400018  RH  044%=      5-min Rain = 0
KPPS 241715Z 07002KT 15/02 A3011 RMK A01 T01450019  RH  043%=      5-min Rain = 0
KPPS 241720Z 05002KT 15/02 A3011 RMK A01 T01500020  RH  042%=      5-min Rain = 0
KPPS 241725Z 04003KT 15/02 A3011 RMK A01 T01530021  RH  041%=      5-min Rain = 0
KPPS 241730Z 03001KT 16/02 A3011 RMK A01 T01550016  RH  039%=      5-min Rain = 0
KPPS 241735Z 04003KT 16/02 A3011 RMK A01 T01560019  RH  040%=      5-min Rain = 0
KPPS 241740Z 07003KT 16/02 A3011 RMK A01 T01580020  RH  040%=      5-min Rain = 0
KPPS 241745Z 03003KT 16/02 A3011 RMK A01 T01610019  RH  039%=      5-min Rain = 0
KPPS 241750Z 01004KT 17/02 A3011 RMK A01 T01650017  RH  038%=      5-min Rain = 0
KPPS 241755Z 35006KT 17/01 A3011 RMK A01 T01670011  RH  035%=      5-min Rain = 0
KPPS 241800Z 31003KT 17/01 A3011 RMK A01 T01690011  RH  035%=      5-min Rain = 0
KPPS 241805Z 30003KT 17/01 A301 RMK A01 T01720009  RH  034%=      5-min Rain = 0
KPPS 241810Z 32003KT 18/01 A301 RMK A01 T01760007  RH  032%=      5-min Rain = 0
KPPS 241815Z 32002KT 18/00 A301 RMK A01 T01790003  RH  031%=      5-min Rain = 0
KPPS 241820Z 30006KT 18/00 A301 RMK A01 T01820001  RH  030%=      5-min Rain = 0
KPPS 241825Z 29005KT 18/M00 A301 RMK A01 T01781003  RH  030%=      5-min Rain = 0
KPPS 241830Z 29002KT 18/00 A301 RMK A01 T01810000  RH  030%=      5-min Rain = 0
KPPS 241835Z 28003KT 19/01 A301 RMK A01 T01860005  RH  030%=      5-min Rain = 0
KPPS 241840Z 34004KT 19/01 A3009 RMK A01 T01890007  RH  030%=      5-min Rain = 0
KPPS 241845Z 32003KT 19/01 A301 RMK A01 T01910009  RH  030%=      5-min Rain = 0
KPPS 241850Z 29003KT 19/01 A301 RMK A01 T01920005  RH  029%=      5-min Rain = 0
KPPS 241855Z 27005KT 19/00 A301 RMK A01 T01910002  RH  028%=      5-min Rain = 0
KPPS 241900Z 30005KT 19/00 A3009 RMK A01 T01920000  RH  028%=      5-min Rain = 0
KPPS 241905Z 31003KT 19/01 A3009 RMK A01 T01920005  RH  029%=      5-min Rain = 0
KPPS 241910Z 34005KT 20/01 A3009 RMK A01 T01970011  RH  029%=      5-min Rain = 0
KPPS 241915Z 36006KT 20/01 A3009 RMK A01 T01960005  RH  028%=      5-min Rain = 0
KPPS 241920Z 35005KT 20/01 A3009 RMK A01 T01950007  RH  029%=      5-min Rain = 0
KPPS 241925Z 33004KT 20/01 A3009 RMK A01 T01990008  RH  028%=      5-min Rain = 0
KPPS 241930Z 31004G9KT 20/00 A3008 RMK A01 T01970001  RH  027%=      5-min Rain = 0
KPPS 241935Z 34002KT 20/00 A3008 RMK A01 T02020001  RH  026%=      5-min Rain = 0
KPPS 241940Z 36003KT 20/00 A3008 RMK A01 T02020001  RH  026%=      5-min Rain = 0
KPPS 241945Z 02003KT 21/M00 A3008 RMK A01 T02051001  RH  026%=      5-min Rain = 0
KPPS 241950Z 03002KT 20/M00 A3008 RMK A01 T02041003  RH  025%=      5-min Rain = 0
KPPS 241955Z 31003KT 21/M00 A3007 RMK A01 T02061003  RH  025%=      5-min Rain = 0
KPPS 242000Z 27002KT 21/M01 A3007 RMK A01 T02061006  RH  024%=      5-min Rain = 0
KPPS 242005Z 07002KT 21/00 A3007 RMK A01 T020800-0  RH  025%=      5-min Rain = 0
KPPS 242010Z 20004KT 21/M00 A3007 RMK A01 T02081003  RH  025%=      5-min Rain = 0
KPPS 242015Z 19004KT 21/00 A3007 RMK A01 T02110003  RH  025%=      5-min Rain = 0
KPPS 242020Z 20005KT 22/00 A3007 RMK A01 T02160002  RH  024%=      5-min Rain = 0
KPPS 242025Z 23003KT 22/M00 A3007 RMK A01 T02171004  RH  023%=      5-min Rain = 0
KPPS 242030Z 23003G8KT 22/M00 A3007 RMK A01 T02211004  RH  023%=      5-min Rain = 0
KPPS 242035Z 22002KT 22/M01 A3006 RMK A01 T02151009  RH  022%=      5-min Rain = 0
KPPS 242040Z 27004KT 22/M01 A3006 RMK A01 T02161007  RH  023%=      5-min Rain = 0
KPPS 242045Z 25005KT 21/M01 A3006 RMK A01 T02141009  RH  023%=      5-min Rain = 0
KPPS 242050Z 26004KT 21/M01 A3006 RMK A01 T02141013  RH  022%=      5-min Rain = 0
KPPS 242055Z 25006KT 22/M01 A3006 RMK A01 T02181008  RH  022%=      5-min Rain = 0
KPPS 242100Z 26005KT 22/M01 A3006 RMK A01 T02211010  RH  022%=      5-min Rain = 0
KPPS 242105Z 27005KT 22/M01 A3006 RMK A01 T02221013  RH  021%=      5-min Rain = 0
KPPS 242110Z 24006KT 22/M01 A3006 RMK A01 T02231008  RH  022%=      5-min Rain = 0
KPPS 242115Z 25004KT 22/M01 A3005 RMK A01 T02241012  RH  021%=      5-min Rain = 0
KPPS 242120Z 29004KT 23/M01 A3005 RMK A01 T02251014  RH  020%=      5-min Rain = 0
KPPS 242125Z 31005G10KT 23/M01 A3005 RMK A01 T02251012  RH  021%=      5-min Rain = 0
KPPS 242130Z 26005G10KT 23/M01 A3005 RMK A01 T02271012  RH  021%=      5-min Rain = 0
KPPS 242135Z 27005KT 23/M01 A3005 RMK A01 T02291013  RH  020%=      5-min Rain = 0
KPPS 242140Z 30004G10KT 23/M02 A3005 RMK A01 T02281024  RH  019%=      5-min Rain = 0
KPPS 242145Z 28004KT 23/M02 A3005 RMK A01 T02281018  RH  019%=      5-min Rain = 0
KPPS 242150Z 29005G10KT 23/M01 A3004 RMK A01 T02311012  RH  020%=      5-min Rain = 0
KPPS 242155Z 28005G11KT 23/M02 A3004 RMK A01 T02311017  RH  019%=      5-min Rain = 0
KPPS 242200Z 29004KT 23/M02 A3004 RMK A01 T02331017  RH  019%=      5-min Rain = 0
KPPS 242205Z 30003KT 23/M02 A3004 RMK A01 T02321020  RH  019%=      5-min Rain = 0
KPPS 242210Z 29007KT 23/M02 A3004 RMK A01 T02341016  RH  019%=      5-min Rain = 0
KPPS 242215Z 31008G14KT 23/M02 A3004 RMK A01 T02311019  RH  019%=      5-min Rain = 0
KPPS 242220Z 34005KT 23/M03 A3004 RMK A01 T02301027  RH  018%=      5-min Rain = 0
KPPS 242225Z 31004KT 23/M03 A3004 RMK A01 T02321030  RH  017%=      5-min Rain = 0
KPPS 242230Z 26010G16KT 24/M03 A3004 RMK A01 T02371027  RH  017%=      5-min Rain = 0
KPPS 242235Z 26006KT 24/M03 A3004 RMK A01 T02351034  RH  017%=      5-min Rain = 0
KPPS 242240Z 28004KT 24/M04 A3004 RMK A01 T02361036  RH  016%=      5-min Rain = 0
KPPS 242245Z 29007G16KT 24/M05 A3004 RMK A01 T02401050  RH  014%=      5-min Rain = 0
KPPS 242250Z 30010KT 24/M07 A3004 RMK A01 T02391068  RH  012%=      5-min Rain = 0
KPPS 242255Z 28012G17KT 24/M06 A3003 RMK A01 T02391062  RH  013%=      5-min Rain = 0
KPPS 242300Z 29012KT 24/M06 A3003 RMK A01 T02391061  RH  013%=      5-min Rain = 0
KPPS 242305Z 28011G16KT 24/M07 A3003 RMK A01 T02391065  RH  013%=      5-min Rain = 0
KPPS 242310Z 28011KT 24/M07 A3004 RMK A01 T02361069  RH  013%=      5-min Rain = 0
KPPS 242315Z 28006KT 24/M06 A3004 RMK A01 T02361064  RH  013%=      5-min Rain = 0
KPPS 242320Z 28009G15KT 24/M06 A3004 RMK A01 T02381062  RH  013%=      5-min Rain = 0
KPPS 242325Z 29007KT 24/M06 A3004 RMK A01 T02381064  RH  013%=      5-min Rain = 0
KPPS 242330Z 28009G14KT 24/M07 A3004 RMK A01 T02371066  RH  013%=      5-min Rain = 0
KPPS 242335Z 27010KT 24/M07 A3003 RMK A01 T02351065  RH  013%=      5-min Rain = 0
KPPS 242340Z 29011KT 24/M06 A3003 RMK A01 T02351060  RH  014%=      5-min Rain = 0
KPPS 242345Z 28011KT 23/M07 A3003 RMK A01 T02341067  RH  013%=      5-min Rain = 0
KPPS 242350Z 30008KT 23/M06 A3004 RMK A01 T02341064  RH  013%=      5-min Rain = 0
KPPS 242355Z 30007KT 23/M06 A3004 RMK A01 T02331064  RH  013%=      5-min Rain = 0
KPPS 250000Z 28006KT 23/M06 A3004 RMK A01 T02331059  RH  014%=      5-min Rain = 0
KPPS 250005Z 27007KT 23/M06 A3004 RMK A01 T02301059  RH  014%=      5-min Rain = 0
KPPS 250010Z 28007KT 23/M06 A3004 RMK A01 T02301057  RH  014%=      5-min Rain = 0
KPPS 250015Z 27008KT 23/M05 A3004 RMK A01 T02281053  RH  015%=      5-min Rain = 0
KPPS 250020Z 28008KT 23/M05 A3004 RMK A01 T02261052  RH  015%=      5-min Rain = 0
KPPS 250025Z 28006KT 22/M05 A3004 RMK A01 T02231046  RH  016%=      5-min Rain = 0
KPPS 250030Z 28005KT 22/M05 A3004 RMK A01 T02211046  RH  016%=      5-min Rain = 0
KPPS 250035Z 28006KT 22/M04 A3005 RMK A01 T02191043  RH  017%=      5-min Rain = 0
KPPS 250040Z 28006KT 21/M04 A3005 RMK A01 T02141040  RH  018%=      5-min Rain = 0
KPPS 250045Z 28006KT 21/M03 A3005 RMK A01 T02081033  RH  020%=      5-min Rain = 0
KPPS 250050Z 28007KT 20/M04 A3005 RMK A01 T02031036  RH  020%=      5-min Rain = 0
KPPS 250055Z 28007KT 20/M03 A3005 RMK A01 T01971032  RH  021%=      5-min Rain = 0
KPPS 250100Z 28007KT 19/M03 A3005 RMK A01 T01911033  RH  022%=      5-min Rain = 0
KPPS 250105Z 29006KT 19/M04 A3005 RMK A01 T01881035  RH  022%=      5-min Rain = 0
KPPS 250110Z 30006KT 19/M04 A3005 RMK A01 T01881039  RH  021%=      5-min Rain = 0
KPPS 250115Z 30007KT 18/M04 A3006 RMK A01 T01841037  RH  022%=      5-min Rain = 0
KPPS 250120Z 30008KT 18/M04 A3006 RMK A01 T01791036  RH  023%=      5-min Rain = 0
KPPS 250125Z 29009KT 18/M04 A3006 RMK A01 T01811044  RH  021%=      5-min Rain = 0
KPPS 250130Z 29009KT 19/M05 A3006 RMK A01 T01861045  RH  021%=      5-min Rain = 0
KPPS 250135Z 29009KT 19/M05 A3006 RMK A01 T01861046  RH  020%=      5-min Rain = 0
KPPS 250140Z 29008KT 18/M04 A3006 RMK A01 T01801040  RH  022%=      5-min Rain = 0
KPPS 250145Z 29008KT 18/M04 A3007 RMK A01 T01771039  RH  023%=      5-min Rain = 0
KPPS 250150Z 28008KT 18/M04 A3007 RMK A01 T01771042  RH  022%=      5-min Rain = 0
KPPS 250155Z 29009KT 18/M04 A3007 RMK A01 T01751040  RH  023%=      5-min Rain = 0
KPPS 250200Z 28008KT 17/M05 A3007 RMK A01 T01721045  RH  022%=      5-min Rain = 0
KPPS 250205Z 27007KT 18/M05 A3007 RMK A01 T01771054  RH  020%=      5-min Rain = 0
KPPS 250210Z 27006KT 17/M05 A3008 RMK A01 T01741050  RH  021%=      5-min Rain = 0
KPPS 250215Z 27005KT 17/M05 A3008 RMK A01 T01651045  RH  023%=      5-min Rain = 0
KPPS 250220Z 27005KT 16/M05 A3008 RMK A01 T01611046  RH  024%=      5-min Rain = 0
KPPS 250225Z 27006KT 16/M05 A3008 RMK A01 T01571045  RH  025%=      5-min Rain = 0
KPPS 250230Z 28006KT 15/M04 A3009 RMK A01 T01521041  RH  026%=      5-min Rain = 0
KPPS 250235Z 28007KT 15/M04 A3009 RMK A01 T01481039  RH  027%=      5-min Rain = 0
KPPS 250240Z 28007KT 14/M04 A3009 RMK A01 T01441036  RH  029%=      5-min Rain = 0
KPPS 250245Z 28007KT 14/M03 A3009 RMK A01 T01401034  RH  030%=      5-min Rain = 0
KPPS 250250Z 28007KT 14/M04 A301 RMK A01 T01391036  RH  030%=      5-min Rain = 0
KPPS 250255Z 27006KT 14/M03 A301 RMK A01 T01351034  RH  031%=      5-min Rain = 0
KPPS 250300Z 27006KT 13/M03 A301 RMK A01 T01341033  RH  031%=      5-min Rain = 0
KPPS 250305Z 26007KT 14/M04 A301 RMK A01 T01351037  RH  030%=      5-min Rain = 0
KPPS 250310Z 26007KT 14/M04 A301 RMK A01 T01361037  RH  030%=      5-min Rain = 0
KPPS 250315Z 26007KT 13/M04 A301 RMK A01 T01331036  RH  031%=      5-min Rain = 0
KPPS 250320Z 26006KT 13/M04 A301 RMK A01 T01331037  RH  031%=      5-min Rain = 0
KPPS 250325Z 26006KT 14/M04 A301 RMK A01 T01351038  RH  030%=      5-min Rain = 0
KPPS 250330Z 25006KT 14/M04 A301 RMK A01 T01361040  RH  029%=      5-min Rain = 0
KPPS 250335Z 25007KT 14/M04 A3011 RMK A01 T01401044  RH  028%=      5-min Rain = 0
KPPS 250340Z 26007KT 14/M04 A3011 RMK A01 T01371040  RH  029%=      5-min Rain = 0
KPPS 250345Z 26007KT 13/M04 A3011 RMK A01 T01331038  RH  030%=      5-min Rain = 0
KPPS 250350Z 26006KT 13/M04 A3011 RMK A01 T01341038  RH  030%=      5-min Rain = 0
KPPS 250355Z 26007KT 13/M04 A3011 RMK A01 T01311035  RH  031%=      5-min Rain = 0
KPPS 250400Z 29007KT 13/M03 A3012 RMK A01 T01261031  RH  033%=      5-min Rain = 0
KPPS 250405Z 30009KT 13/M03 A3012 RMK A01 T01261033  RH  033%=      5-min Rain = 0
KPPS 250410Z 30012KT 13/M04 A3012 RMK A01 T01331036  RH  031%=      5-min Rain = 0
KPPS 250415Z 31012KT 14/M04 A3012 RMK A01 T01371040  RH  029%=      5-min Rain = 0
KPPS 250420Z 31010KT 14/M04 A3013 RMK A01 T01391041  RH  029%=      5-min Rain = 0
KPPS 250425Z 31010KT 14/M04 A3013 RMK A01 T01381043  RH  028%=      5-min Rain = 0
KPPS 250430Z 31010KT 14/M04 A3013 RMK A01 T01361042  RH  029%=      5-min Rain = 0
KPPS 250435Z 31010KT 13/M04 A3013 RMK A01 T01341044  RH  029%=      5-min Rain = 0
KPPS 250440Z 31010KT 13/M05 A3013 RMK A01 T01341046  RH  028%=      5-min Rain = 0
KPPS 250445Z 32009KT 13/M05 A3013 RMK A01 T01311046  RH  029%=      5-min Rain = 0
KPPS 250450Z 31010KT 13/M05 A3013 RMK A01 T01291048  RH  029%=      5-min Rain = 0
KPPS 250455Z 31010KT 13/M05 A3013 RMK A01 T01301051  RH  028%=      5-min Rain = 0

Page generated in 0.009 seconds.